CheckWX is a tool to help pilots better visualize weather data.  It is not intended as a substitute for an official pre-flight weather briefing.

16:22:58 UTC

KHNZ METAR
Henderson-Oxford Airport
Oxford, North Carolina, USA
Current

8 mins ago

KHNZ 221615Z AUTO 26008G15KT 10SM CLR 32/19 A2994 RMK AO2 T03190187
Observed
Jul-22 @ 16:15 UTC
Wind
  • 260° at 8 KTS
  • Gusting to 15 KTS
Visibility
10 SM
Flight Rules
VFR
Cloud Levels
  • Clear skies
Temperature
32°C / 90°F
Dewpoint
19°C / 66°F
Heat Index
34°C / 93°F
Humidity
46%
Altimeter
29.94" Hg
Pressure
1013.92 hPa
Previous

28 mins ago

KHNZ 221555Z AUTO 23014G20KT 10SM CLR 32/19 A2995 RMK AO2 T03180191
Observed
Jul-22 @ 15:55 UTC
Wind
  • 230° at 14 KTS
  • Gusting to 20 KTS
Visibility
10 SM
Flight Rules
VFR
Cloud Levels
  • Clear skies
Temperature
32°C / 90°F
Dewpoint
19°C / 66°F
Heat Index
34°C / 93°F
Humidity
46%
Altimeter
29.95" Hg
Pressure
1014.22 hPa
Previous

48 mins ago

KHNZ 221535Z AUTO 23013G19KT 10SM CLR 32/20 A2995 RMK AO2 T03200195
Observed
Jul-22 @ 15:35 UTC
Wind
  • 230° at 13 KTS
  • Gusting to 19 KTS
Visibility
10 SM
Flight Rules
VFR
Cloud Levels
  • Clear skies
Temperature
32°C / 90°F
Dewpoint
20°C / 68°F
Heat Index
34°C / 94°F
Humidity
49%
Altimeter
29.95" Hg
Pressure
1014.22 hPa